Time;durP1;ratioP1;P1;durP2;ratioP2;P2;SDS_P1;SDS_P2;PMS_P1;PMS_P2;Temp;Humidity;BMP_temperature;BMP_pressure;BME280_temperature;BME280_humidity;BME280_pressure;Samples;Min_cycle;Max_cycle;Signal;HPM_P1;HPM_P2
2021/12/10 00:02:34;;;;;;;0.40;0.40;;;1.60;99.90;;;;;;5055180;28;20421;-65
2021/12/10 00:05:26;;;;;;;0.40;0.40;;;1.60;99.90;;;;;;5055393;28;20815;-65
2021/12/10 00:08:15;;;;;;;2.30;2.20;;;1.60;99.90;;;;;;5055753;28;20435;-66
2021/12/10 00:11:08;;;;;;;1.70;1.60;;;1.60;99.90;;;;;;5055333;28;20832;-66
2021/12/10 00:13:56;;;;;;;0.50;0.50;;;1.70;99.90;;;;;;5055464;28;20415;-66
2021/12/10 00:16:43;;;;;;;0.50;0.50;;;1.60;99.90;;;;;;5055208;28;20464;-66
2021/12/10 00:19:34;;;;;;;1.43;1.43;;;1.60;99.90;;;;;;5054093;28;20424;-66
2021/12/10 00:22:27;;;;;;;0.40;0.40;;;1.70;99.90;;;;;;5054533;28;20448;-66
2021/12/10 00:25:19;;;;;;;0.40;0.40;;;1.70;99.90;;;;;;5055026;28;20466;-66
2021/12/10 00:28:14;;;;;;;1.07;1.07;;;1.60;99.90;;;;;;5054696;28;20422;-68
2021/12/10 00:31:15;;;;;;;0.40;0.40;;;1.60;99.90;;;;;;5054503;28;20437;-66
2021/12/10 00:34:07;;;;;;;0.40;0.40;;;1.50;99.90;;;;;;5055374;28;20465;-65
2021/12/10 00:36:58;;;;;;;0.40;0.40;;;1.60;99.90;;;;;;5055076;28;20460;-65
2021/12/10 00:39:48;;;;;;;1.00;1.00;;;1.70;99.90;;;;;;5054843;28;20438;-66
2021/12/10 00:42:37;;;;;;;0.40;0.40;;;1.60;99.90;;;;;;5055608;28;20463;-65
2021/12/10 00:45:26;;;;;;;0.60;0.60;;;1.70;99.90;;;;;;5054508;28;20429;-66
2021/12/10 00:48:13;;;;;;;0.40;0.40;;;1.60;99.90;;;;;;5054439;28;20424;-66
2021/12/10 00:51:01;;;;;;;0.40;0.40;;;1.60;99.90;;;;;;5053863;28;20809;-66
2021/12/10 00:53:48;;;;;;;0.40;0.40;;;1.70;99.90;;;;;;5054111;28;20463;-66
2021/12/10 00:56:35;;;;;;;0.40;0.40;;;1.70;99.90;;;;;;5074498;28;20499;-66
2021/12/10 00:59:24;;;;;;;1.83;1.73;;;1.80;99.90;;;;;;5075089;28;20462;-66
2021/12/10 01:02:14;;;;;;;0.40;0.40;;;1.60;99.90;;;;;;5074204;28;20460;-66
2021/12/10 01:05:01;;;;;;;0.50;0.50;;;1.60;99.90;;;;;;5073744;28;20447;-66
2021/12/10 01:07:48;;;;;;;0.63;0.63;;;1.60;99.90;;;;;;5063100;28;20443;-66
2021/12/10 01:10:39;;;;;;;0.40;0.40;;;1.60;99.90;;;;;;5062632;28;20448;-66
2021/12/10 01:13:30;;;;;;;0.40;0.40;;;1.60;99.90;;;;;;5081126;28;20431;-66
2021/12/10 01:25:40;;;;;;;0.40;0.40;;;1.40;99.90;;;;;;5082421;28;20419;-66
2021/12/10 01:28:27;;;;;;;2.70;2.60;;;1.40;99.90;;;;;;5081333;28;20419;-66
2021/12/10 01:31:14;;;;;;;0.40;0.40;;;1.40;99.90;;;;;;5078633;28;20951;-66
2021/12/10 01:34:04;;;;;;;0.60;0.60;;;1.30;99.90;;;;;;5078000;28;20429;-66
2021/12/10 01:36:51;;;;;;;2.00;1.90;;;1.40;99.90;;;;;;5078641;28;20464;-66
2021/12/10 01:39:41;;;;;;;0.40;0.40;;;1.50;99.90;;;;;;5078080;28;20431;-66
2021/12/10 01:42:38;;;;;;;4.00;2.93;;;1.50;99.90;;;;;;5082286;28;20424;-66
2021/12/10 01:45:28;;;;;;;0.40;0.40;;;1.50;99.90;;;;;;5082593;28;20426;-66
2021/12/10 01:48:19;;;;;;;0.40;0.40;;;1.60;99.90;;;;;;5081152;28;20449;-66
2021/12/10 01:51:08;;;;;;;0.70;0.70;;;1.70;99.90;;;;;;5082145;28;20474;-66
2021/12/10 01:54:01;;;;;;;2.00;2.00;;;1.60;99.90;;;;;;5082238;28;20424;-66
2021/12/10 01:56:50;;;;;;;0.90;0.90;;;1.60;99.90;;;;;;5079872;28;20455;-66
2021/12/10 01:59:38;;;;;;;0.40;0.40;;;1.60;99.90;;;;;;5076151;28;20522;-66
2021/12/10 02:02:28;;;;;;;0.40;0.40;;;1.60;99.90;;;;;;5074936;28;20503;-66
2021/12/10 02:05:17;;;;;;;0.90;0.90;;;1.60;99.90;;;;;;5073233;28;20425;-66
2021/12/10 02:08:06;;;;;;;0.40;0.40;;;1.70;99.90;;;;;;5078058;28;20473;-66
2021/12/10 02:10:53;;;;;;;0.40;0.40;;;1.70;99.90;;;;;;5089256;28;20450;-66
2021/12/10 02:13:40;;;;;;;0.40;0.40;;;1.70;99.90;;;;;;5068587;28;20428;-66
2021/12/10 02:16:27;;;;;;;0.40;0.40;;;1.70;99.90;;;;;;5067390;28;20464;-66
2021/12/10 02:19:16;;;;;;;0.40;0.40;;;1.80;99.90;;;;;;5069156;28;20451;-66
2021/12/10 02:22:05;;;;;;;0.40;0.40;;;1.80;99.90;;;;;;5065310;28;20871;-66
2021/12/10 02:24:52;;;;;;;0.67;0.67;;;1.90;99.90;;;;;;5053394;28;20429;-66
2021/12/10 02:27:39;;;;;;;2.13;2.13;;;1.80;99.90;;;;;;5053573;28;20470;-66
2021/12/10 02:30:29;;;;;;;2.70;2.60;;;1.80;99.90;;;;;;5050854;28;20444;-66
2021/12/10 02:33:17;;;;;;;5.03;3.80;;;1.80;99.90;;;;;;5069850;28;20424;-66
2021/12/10 02:36:10;;;;;;;0.50;0.50;;;2.00;99.90;;;;;;5080941;28;20468;-66
2021/12/10 02:38:58;;;;;;;0.40;0.40;;;1.90;99.90;;;;;;5073305;28;20424;-66
2021/12/10 02:41:46;;;;;;;0.40;0.40;;;1.80;99.90;;;;;;5072690;28;20442;-66
2021/12/10 02:44:33;;;;;;;0.40;0.40;;;1.80;99.90;;;;;;5073149;28;20456;-67
2021/12/10 02:47:21;;;;;;;0.97;0.97;;;1.70;99.90;;;;;;5072682;28;20423;-67
2021/12/10 02:50:10;;;;;;;0.40;0.40;;;1.80;99.90;;;;;;5072409;28;20426;-66
2021/12/10 02:52:58;;;;;;;0.70;0.70;;;1.80;99.90;;;;;;5073084;28;20436;-66
2021/12/10 02:55:46;;;;;;;0.40;0.40;;;1.80;99.90;;;;;;5072597;28;20419;-66
2021/12/10 02:58:34;;;;;;;0.40;0.40;;;1.90;99.90;;;;;;5073374;28;20434;-67
2021/12/10 03:01:26;;;;;;;0.40;0.40;;;1.90;99.90;;;;;;5072109;28;20553;-67
2021/12/10 03:04:14;;;;;;;0.40;0.40;;;2.00;99.90;;;;;;5072600;28;20434;-66
2021/12/10 03:07:07;;;;;;;0.40;0.40;;;2.00;99.90;;;;;;5072650;28;20793;-66
2021/12/10 03:09:54;;;;;;;0.40;0.40;;;1.90;99.90;;;;;;5072118;28;20427;-66
2021/12/10 03:12:43;;;;;;;0.40;0.40;;;1.90;99.90;;;;;;5060438;28;20428;-66
2021/12/10 03:15:31;;;;;;;0.80;0.80;;;1.90;99.90;;;;;;5054658;28;20424;-66
2021/12/10 03:18:19;;;;;;;2.60;1.90;;;1.80;99.90;;;;;;5056205;28;20466;-66
2021/12/10 03:21:09;;;;;;;0.40;0.40;;;1.80;99.90;;;;;;5056380;28;20451;-66
2021/12/10 03:23:56;;;;;;;0.40;0.40;;;1.80;99.90;;;;;;5056612;28;20427;-66
2021/12/10 03:26:43;;;;;;;0.40;0.40;;;1.70;99.90;;;;;;5056467;28;20507;-66
2021/12/10 03:29:35;;;;;;;0.40;0.40;;;1.80;99.90;;;;;;5056518;28;20421;-66
2021/12/10 03:32:28;;;;;;;0.40;0.40;;;1.80;99.90;;;;;;5056273;28;20447;-66
2021/12/10 03:35:20;;;;;;;0.40;0.40;;;1.80;99.90;;;;;;5055600;28;20781;-66
2021/12/10 03:38:07;;;;;;;0.77;0.77;;;1.80;99.90;;;;;;5055827;28;20472;-66
2021/12/10 03:40:55;;;;;;;0.40;0.40;;;1.80;99.90;;;;;;5056434;28;20505;-66
2021/12/10 03:43:46;;;;;;;0.40;0.40;;;1.80;99.90;;;;;;5055847;28;20424;-66
2021/12/10 03:46:34;;;;;;;0.40;0.40;;;1.80;99.90;;;;;;5055712;28;20423;-66
2021/12/10 03:49:22;;;;;;;0.40;0.40;;;1.80;99.90;;;;;;5055300;28;20488;-66
2021/12/10 03:52:10;;;;;;;2.50;2.20;;;1.80;99.90;;;;;;5078470;23;21014;-70
2021/12/10 03:54:59;;;;;;;0.40;0.40;;;1.80;99.90;;;;;;5056504;28;20435;-70
2021/12/10 03:57:46;;;;;;;0.40;0.40;;;1.80;99.90;;;;;;5056620;28;20464;-69
2021/12/10 04:00:39;;;;;;;0.63;0.63;;;2.00;99.90;;;;;;5057433;28;20910;-69
2021/12/10 04:03:30;;;;;;;0.40;0.40;;;1.90;99.90;;;;;;5056347;28;20878;-69
2021/12/10 04:06:18;;;;;;;0.87;0.87;;;1.90;99.90;;;;;;5055836;28;20458;-69
2021/12/10 04:09:06;;;;;;;0.50;0.50;;;1.90;99.90;;;;;;5055569;28;20960;-69
2021/12/10 04:11:55;;;;;;;0.40;0.40;;;2.10;99.90;;;;;;5056556;28;20944;-69
2021/12/10 04:14:44;;;;;;;0.50;0.50;;;2.10;99.90;;;;;;5055992;28;20449;-71
2021/12/10 04:17:31;;;;;;;0.40;0.40;;;2.20;99.90;;;;;;5055106;28;20500;-69
2021/12/10 04:20:21;;;;;;;0.40;0.40;;;2.10;99.90;;;;;;5055561;28;20428;-70
2021/12/10 04:23:13;;;;;;;2.07;1.97;;;2.00;99.90;;;;;;5054082;28;20444;-69
2021/12/10 04:26:00;;;;;;;0.40;0.40;;;2.10;99.90;;;;;;5054746;28;20432;-70
2021/12/10 04:28:47;;;;;;;0.73;0.73;;;2.20;99.90;;;;;;5053872;28;20436;-69
2021/12/10 04:31:34;;;;;;;0.70;0.70;;;2.10;99.90;;;;;;5053790;28;20432;-70
2021/12/10 04:34:23;;;;;;;0.50;0.50;;;2.00;99.90;;;;;;5053287;28;20427;-69
2021/12/10 04:37:12;;;;;;;3.97;3.80;;;2.10;99.90;;;;;;5054748;28;20469;-69
2021/12/10 04:40:02;;;;;;;1.43;1.33;;;2.00;99.90;;;;;;5055159;28;20442;-70
2021/12/10 04:42:51;;;;;;;0.40;0.40;;;1.90;99.90;;;;;;5054854;28;20444;-69
2021/12/10 04:45:38;;;;;;;0.50;0.50;;;2.00;99.90;;;;;;5055240;28;20429;-70
2021/12/10 04:48:27;;;;;;;0.50;0.50;;;2.00;99.90;;;;;;5053648;28;20796;-70
2021/12/10 04:51:14;;;;;;;0.87;0.87;;;2.00;99.90;;;;;;5054912;28;20426;-68
2021/12/10 04:54:04;;;;;;;0.50;0.50;;;2.10;99.90;;;;;;5055291;28;20424;-70
2021/12/10 04:56:54;;;;;;;0.50;0.50;;;2.10;99.90;;;;;;5054822;28;20529;-70
2021/12/10 04:59:41;;;;;;;0.40;0.40;;;2.20;99.90;;;;;;5074141;28;20447;-69
2021/12/10 05:02:28;;;;;;;0.50;0.50;;;2.20;99.90;;;;;;5073456;28;20448;-68
2021/12/10 05:05:16;;;;;;;0.40;0.40;;;2.20;99.90;;;;;;5073528;28;20436;-70
2021/12/10 05:08:04;;;;;;;0.40;0.40;;;2.20;99.90;;;;;;5073435;28;20423;-70
2021/12/10 05:10:52;;;;;;;0.50;0.50;;;2.10;99.90;;;;;;5067344;28;20475;-70
2021/12/10 05:13:43;;;;;;;0.40;0.40;;;2.20;99.90;;;;;;5035033;28;21004;-69
2021/12/10 05:16:30;;;;;;;0.43;0.43;;;2.10;99.90;;;;;;5032597;28;20457;-72
2021/12/10 05:19:20;;;;;;;1.07;1.07;;;2.10;99.90;;;;;;5033496;28;20445;-69
2021/12/10 05:22:10;;;;;;;0.40;0.40;;;2.10;99.90;;;;;;5031842;28;20437;-69
2021/12/10 05:24:57;;;;;;;0.40;0.40;;;2.10;99.90;;;;;;5034826;28;20795;-69
2021/12/10 05:27:46;;;;;;;0.40;0.40;;;2.20;99.90;;;;;;5033142;28;20785;-70
2021/12/10 05:30:34;;;;;;;0.40;0.40;;;2.20;99.90;;;;;;5032673;28;20472;-70
2021/12/10 05:33:22;;;;;;;0.40;0.40;;;2.20;99.90;;;;;;5033400;28;20464;-69
2021/12/10 05:36:09;;;;;;;0.73;0.73;;;2.20;99.90;;;;;;5031389;28;20432;-70
2021/12/10 05:38:56;;;;;;;0.40;0.40;;;2.10;99.90;;;;;;5032597;28;20464;-70
2021/12/10 05:41:43;;;;;;;0.50;0.50;;;2.10;99.90;;;;;;5045975;28;20460;-70
2021/12/10 05:44:32;;;;;;;0.40;0.40;;;2.10;99.90;;;;;;5033944;28;20426;-70
2021/12/10 05:47:19;;;;;;;0.40;0.40;;;2.00;99.90;;;;;;5032538;28;20460;-70
2021/12/10 05:50:09;;;;;;;0.40;0.40;;;1.90;99.90;;;;;;5032743;28;20437;-70
2021/12/10 05:52:56;;;;;;;0.50;0.50;;;2.00;99.90;;;;;;5032902;28;20465;-70
2021/12/10 05:55:44;;;;;;;0.40;0.40;;;2.00;99.90;;;;;;5033070;28;20425;-70
2021/12/10 05:58:31;;;;;;;0.40;0.40;;;2.00;99.90;;;;;;5032334;28;20976;-70
2021/12/10 06:01:21;;;;;;;0.77;0.77;;;2.00;99.90;;;;;;5034416;28;20429;-69
2021/12/10 06:04:09;;;;;;;0.40;0.40;;;2.00;99.90;;;;;;5034579;28;20428;-69
2021/12/10 06:06:56;;;;;;;0.70;0.70;;;2.10;99.90;;;;;;5031684;28;20430;-70
2021/12/10 06:09:44;;;;;;;0.40;0.40;;;2.00;99.90;;;;;;5030594;28;20433;-69
2021/12/10 06:12:31;;;;;;;1.90;1.80;;;2.00;99.90;;;;;;5044387;28;20452;-69
2021/12/10 06:15:20;;;;;;;0.50;0.50;;;2.10;99.90;;;;;;5054358;28;20439;-70
2021/12/10 06:18:09;;;;;;;0.40;0.40;;;2.00;99.90;;;;;;5052434;28;20468;-69
2021/12/10 06:20:56;;;;;;;0.40;0.40;;;2.20;99.90;;;;;;5053105;28;20455;-70
2021/12/10 06:23:44;;;;;;;0.40;0.40;;;2.00;99.90;;;;;;5053746;28;20444;-70
2021/12/10 06:26:31;;;;;;;0.40;0.40;;;2.10;99.90;;;;;;5053831;28;20550;-70
2021/12/10 06:29:18;;;;;;;0.50;0.50;;;2.10;99.90;;;;;;5053012;28;20514;-70
2021/12/10 06:32:05;;;;;;;1.43;1.43;;;2.00;99.90;;;;;;5053027;28;20476;-70
2021/12/10 06:34:53;;;;;;;0.47;0.47;;;2.00;99.90;;;;;;5053854;28;20440;-70
2021/12/10 06:37:42;;;;;;;0.40;0.40;;;2.00;99.90;;;;;;5053543;28;20476;-70
2021/12/10 06:40:32;;;;;;;0.70;0.70;;;2.00;99.90;;;;;;5052002;28;20939;-70
2021/12/10 06:43:20;;;;;;;0.60;0.60;;;2.00;99.90;;;;;;5052034;28;20448;-68
2021/12/10 06:46:07;;;;;;;0.50;0.50;;;1.90;99.90;;;;;;5053778;28;20974;-69
2021/12/10 06:48:54;;;;;;;0.50;0.50;;;1.80;99.90;;;;;;5058319;28;20417;-69
2021/12/10 06:51:43;;;;;;;0.57;0.57;;;1.90;99.90;;;;;;5072584;28;20451;-70
2021/12/10 06:54:30;;;;;;;0.40;0.40;;;2.00;99.90;;;;;;5066148;28;20455;-69
2021/12/10 06:57:17;;;;;;;1.50;1.50;;;1.90;99.90;;;;;;5056306;28;20427;-70
2021/12/10 07:00:05;;;;;;;0.50;0.50;;;1.90;99.90;;;;;;5056904;28;20424;-70
2021/12/10 07:02:53;;;;;;;0.40;0.40;;;1.90;99.90;;;;;;5055148;28;20448;-69
2021/12/10 07:05:40;;;;;;;0.40;0.40;;;1.90;99.90;;;;;;5057021;28;20482;-69
2021/12/10 07:08:32;;;;;;;1.00;1.00;;;1.80;99.90;;;;;;5057519;28;20420;-69
2021/12/10 07:11:21;;;;;;;0.60;0.60;;;1.80;99.90;;;;;;5056191;28;20429;-69
2021/12/10 07:14:09;;;;;;;0.50;0.50;;;1.80;99.90;;;;;;5056234;28;20855;-70
2021/12/10 07:16:56;;;;;;;0.70;0.70;;;1.90;99.90;;;;;;5057225;28;20434;-70
2021/12/10 07:19:43;;;;;;;0.40;0.40;;;2.00;99.90;;;;;;5056298;28;20420;-69
2021/12/10 07:22:30;;;;;;;0.40;0.40;;;2.00;99.90;;;;;;5054769;28;20856;-70
2021/12/10 07:25:20;;;;;;;0.43;0.43;;;2.10;99.90;;;;;;5055626;28;20420;-70
2021/12/10 07:28:07;;;;;;;0.40;0.40;;;2.10;99.90;;;;;;5056696;28;20408;-69
2021/12/10 07:30:54;;;;;;;0.40;0.40;;;2.10;99.90;;;;;;5055180;28;20416;-69
2021/12/10 07:33:41;;;;;;;0.50;0.50;;;2.10;99.90;;;;;;5058437;28;20471;-69
2021/12/10 07:36:30;;;;;;;0.40;0.40;;;1.90;99.90;;;;;;5058138;28;20428;-70
2021/12/10 07:39:17;;;;;;;0.50;0.50;;;2.00;99.90;;;;;;5056153;28;20475;-70
2021/12/10 07:42:07;;;;;;;1.13;1.13;;;2.00;99.90;;;;;;5057002;28;20501;-69
2021/12/10 07:44:56;;;;;;;0.90;0.90;;;2.10;99.90;;;;;;5062399;28;20462;-70
2021/12/10 07:47:43;;;;;;;0.83;0.83;;;2.10;99.90;;;;;;5059144;28;20632;-69
2021/12/10 07:50:34;;;;;;;0.40;0.40;;;2.00;99.90;;;;;;5056559;28;20775;-70
2021/12/10 07:53:21;;;;;;;0.40;0.40;;;2.00;99.90;;;;;;5055893;28;21113;-69
2021/12/10 07:56:11;;;;;;;0.40;0.40;;;2.00;99.90;;;;;;5059809;28;20428;-70
2021/12/10 07:59:00;;;;;;;0.40;0.40;;;2.10;99.90;;;;;;5074510;28;20498;-70
2021/12/10 08:01:47;;;;;;;0.40;0.40;;;2.30;99.90;;;;;;5064061;28;20429;-69
2021/12/10 08:04:34;;;;;;;0.40;0.40;;;2.20;99.90;;;;;;5075334;28;20436;-71
2021/12/10 08:07:21;;;;;;;0.70;0.70;;;2.40;99.90;;;;;;5072083;28;20432;-70
2021/12/10 08:10:10;;;;;;;0.40;0.40;;;2.40;99.90;;;;;;5073990;28;20432;-68
2021/12/10 08:12:57;;;;;;;0.40;0.40;;;2.40;99.90;;;;;;5074358;28;20456;-69
2021/12/10 08:15:46;;;;;;;0.50;0.50;;;2.50;99.90;;;;;;5073428;28;20454;-69
2021/12/10 08:18:33;;;;;;;0.50;0.50;;;2.40;99.90;;;;;;5067671;28;20460;-68
2021/12/10 08:21:20;;;;;;;1.00;1.00;;;2.40;99.90;;;;;;5075894;28;20478;-71
2021/12/10 08:24:07;;;;;;;0.40;0.40;;;2.40;99.90;;;;;;5076632;28;20722;-69
2021/12/10 08:26:54;;;;;;;0.40;0.40;;;2.50;99.90;;;;;;5075825;28;20454;-69
2021/12/10 08:29:43;;;;;;;0.40;0.40;;;2.60;99.90;;;;;;5076288;28;20478;-69
2021/12/10 08:32:33;;;;;;;3.67;2.33;;;2.70;99.90;;;;;;5075437;28;20555;-69
2021/12/10 08:35:23;;;;;;;0.40;0.40;;;2.80;99.90;;;;;;5075658;28;20447;-70
2021/12/10 08:38:11;;;;;;;0.40;0.40;;;2.70;99.90;;;;;;5074917;28;20490;-70
2021/12/10 08:41:01;;;;;;;0.80;0.80;;;2.70;99.90;;;;;;5074668;28;20443;-69
2021/12/10 08:43:49;;;;;;;0.50;0.50;;;2.80;99.90;;;;;;5059619;28;20456;-70
2021/12/10 08:46:38;;;;;;;0.90;0.90;;;2.90;99.90;;;;;;5055184;28;20857;-70
2021/12/10 08:49:27;;;;;;;0.93;0.93;;;2.90;99.90;;;;;;5042746;28;20433;-70
2021/12/10 08:52:15;;;;;;;1.60;1.50;;;2.90;99.90;;;;;;5055603;28;20551;-70
2021/12/10 08:55:03;;;;;;;0.40;0.40;;;2.90;99.90;;;;;;5041093;28;20572;-70
2021/12/10 08:57:49;;;;;;;0.43;0.43;;;2.90;99.90;;;;;;5038395;28;20443;-70
2021/12/10 09:00:39;;;;;;;0.70;0.70;;;2.90;99.90;;;;;;5041451;28;20420;-70
2021/12/10 09:03:26;;;;;;;0.40;0.40;;;2.80;99.90;;;;;;5056468;28;20953;-70
2021/12/10 09:06:16;;;;;;;0.50;0.50;;;2.80;99.90;;;;;;5054881;28;20416;-70
2021/12/10 09:09:07;;;;;;;0.40;0.40;;;2.70;99.90;;;;;;5054874;28;20417;-70
2021/12/10 09:11:57;;;;;;;0.40;0.40;;;2.80;99.90;;;;;;5054523;28;20456;-71
2021/12/10 09:14:48;;;;;;;0.50;0.50;;;2.80;99.90;;;;;;5054624;28;20459;-70
2021/12/10 09:17:38;;;;;;;0.50;0.50;;;3.00;99.90;;;;;;5040797;28;20433;-70
2021/12/10 09:20:32;;;;;;;0.40;0.40;;;3.10;99.90;;;;;;5035439;28;20945;-69
2021/12/10 09:23:26;;;;;;;0.50;0.50;;;3.00;99.90;;;;;;5034312;28;20445;-70
2021/12/10 09:26:17;;;;;;;0.40;0.40;;;3.00;99.90;;;;;;5034264;28;20957;-70
2021/12/10 09:29:07;;;;;;;0.40;0.40;;;3.00;99.90;;;;;;5034910;28;20417;-70
2021/12/10 09:31:54;;;;;;;0.40;0.40;;;3.00;99.90;;;;;;5034098;28;20483;-70
2021/12/10 09:34:42;;;;;;;2.40;2.30;;;3.10;99.90;;;;;;5033761;28;20444;-70
2021/12/10 09:37:29;;;;;;;1.93;1.83;;;3.10;99.90;;;;;;5034135;28;20429;-69
2021/12/10 09:40:21;;;;;;;6.00;4.10;;;3.20;99.90;;;;;;5034780;28;20798;-70
2021/12/10 09:43:10;;;;;;;0.40;0.40;;;3.20;99.90;;;;;;5036121;28;20859;-70
2021/12/10 09:45:58;;;;;;;5.37;4.97;;;3.30;99.90;;;;;;5049571;28;20491;-69
2021/12/10 09:48:46;;;;;;;0.50;0.50;;;3.20;99.90;;;;;;5060611;28;20417;-68
2021/12/10 09:51:36;;;;;;;0.50;0.50;;;3.40;99.90;;;;;;5066080;28;20478;-69
2021/12/10 09:54:27;;;;;;;3.70;1.57;;;3.30;99.90;;;;;;5090463;22;20575;-67
2021/12/10 09:57:18;;;;;;;6.73;4.53;;;3.20;99.90;;;;;;5073906;28;20938;-66
2021/12/10 10:00:10;;;;;;;0.40;0.40;;;3.10;99.90;;;;;;5073144;28;20804;-67
2021/12/10 10:02:58;;;;;;;0.40;0.40;;;3.10;99.90;;;;;;5073266;28;20419;-67
2021/12/10 10:05:46;;;;;;;0.60;0.60;;;3.10;99.90;;;;;;5074957;28;20447;-69
2021/12/10 10:08:35;;;;;;;0.40;0.40;;;3.20;99.90;;;;;;5074052;28;20426;-69
2021/12/10 10:11:28;;;;;;;1.73;1.63;;;3.30;99.90;;;;;;5074479;28;20431;-68
2021/12/10 10:14:16;;;;;;;0.40;0.40;;;3.50;99.90;;;;;;5073717;28;20447;-67
2021/12/10 10:17:09;;;;;;;1.73;1.43;;;3.40;99.90;;;;;;5073166;28;20451;-67
2021/12/10 10:19:56;;;;;;;0.60;0.60;;;3.40;99.90;;;;;;5073117;28;20471;-68
2021/12/10 10:22:44;;;;;;;0.50;0.50;;;3.50;99.90;;;;;;5073611;28;20427;-67
2021/12/10 10:25:37;;;;;;;0.50;0.50;;;3.30;99.90;;;;;;5073743;28;20424;-68
2021/12/10 10:28:25;;;;;;;2.93;2.83;;;3.50;99.90;;;;;;5073410;28;20412;-67
2021/12/10 10:31:17;;;;;;;1.87;1.87;;;3.60;99.90;;;;;;5073411;28;20447;-67
2021/12/10 10:34:07;;;;;;;0.60;0.60;;;3.50;99.90;;;;;;5072524;28;20488;-68
2021/12/10 10:36:55;;;;;;;0.50;0.50;;;3.70;99.90;;;;;;5073729;28;20808;-68
2021/12/10 10:39:43;;;;;;;0.40;0.40;;;3.80;99.90;;;;;;5070018;28;20505;-68
2021/12/10 10:42:31;;;;;;;1.60;1.53;;;3.80;99.90;;;;;;5052345;28;20428;-68
2021/12/10 10:45:23;;;;;;;0.50;0.50;;;3.80;99.90;;;;;;5052169;28;20436;-67
2021/12/10 10:48:13;;;;;;;1.90;1.80;;;3.80;99.90;;;;;;5052110;28;20482;-68
2021/12/10 10:51:04;;;;;;;1.47;1.37;;;3.80;99.90;;;;;;5050836;28;20574;-67
2021/12/10 10:53:54;;;;;;;0.40;0.40;;;3.80;99.90;;;;;;5049767;28;20491;-67
2021/12/10 10:56:45;;;;;;;0.40;0.40;;;3.70;99.90;;;;;;5051281;28;20428;-70
2021/12/10 10:59:32;;;;;;;0.50;0.50;;;3.60;99.90;;;;;;5051018;28;20467;-68
2021/12/10 11:02:19;;;;;;;0.40;0.40;;;3.60;99.90;;;;;;5051327;28;20424;-67
2021/12/10 11:05:11;;;;;;;0.40;0.40;;;3.60;99.90;;;;;;5050812;28;20517;-68
2021/12/10 11:08:01;;;;;;;0.40;0.40;;;3.60;99.90;;;;;;5051087;28;20949;-67
2021/12/10 11:10:48;;;;;;;0.40;0.40;;;3.60;99.90;;;;;;5051429;28;20417;-67
2021/12/10 11:13:35;;;;;;;0.40;0.40;;;3.70;99.90;;;;;;5070268;28;20439;-67
2021/12/10 11:16:27;;;;;;;0.40;0.40;;;3.70;99.90;;;;;;5071658;28;20423;-67
2021/12/10 11:19:17;;;;;;;0.40;0.40;;;3.90;99.90;;;;;;5071380;28;20455;-68
2021/12/10 11:22:10;;;;;;;0.40;0.40;;;4.10;99.90;;;;;;5071653;28;20431;-67
2021/12/10 11:24:59;;;;;;;0.40;0.40;;;4.20;99.90;;;;;;5071866;28;20469;-68
2021/12/10 11:27:48;;;;;;;1.80;1.70;;;4.30;99.90;;;;;;5071821;28;20424;-68
2021/12/10 11:30:40;;;;;;;2.83;2.73;;;4.30;99.90;;;;;;5071654;28;20411;-68
2021/12/10 11:33:27;;;;;;;0.40;0.40;;;4.30;99.90;;;;;;5071515;28;20439;-68
2021/12/10 11:36:18;;;;;;;0.40;0.40;;;4.20;99.90;;;;;;5072935;28;20922;-68
2021/12/10 11:39:06;;;;;;;0.40;0.40;;;4.10;99.90;;;;;;5075385;28;20492;-68
2021/12/10 11:41:55;;;;;;;3.23;3.13;;;4.20;99.90;;;;;;5075703;28;20434;-68
2021/12/10 11:45:15;;;;;;;1.23;1.03;;;4.30;99.90;;;;;;5075201;28;20454;-68
2021/12/10 11:47:54;;;;;;;2.30;1.67;;;4.30;99.90;;;;;;5075254;28;20419;-68
2021/12/10 11:50:59;;;;;;;0.40;0.40;;;4.20;99.90;;;;;;5075188;28;20883;-67
2021/12/10 11:53:51;;;;;;;1.07;1.07;;;4.30;99.90;;;;;;5075503;28;20488;-68
2021/12/10 11:56:44;;;;;;;1.80;1.70;;;4.20;99.90;;;;;;5075061;28;20416;-68
2021/12/10 11:59:32;;;;;;;0.40;0.40;;;4.10;99.90;;;;;;5074336;28;20455;-68
2021/12/10 12:02:21;;;;;;;5.83;2.63;;;4.20;99.90;;;;;;5074952;28;20488;-68
2021/12/10 12:05:11;;;;;;;0.40;0.40;;;4.20;99.90;;;;;;5075017;28;20989;-67
2021/12/10 12:08:00;;;;;;;1.57;1.47;;;4.20;99.90;;;;;;5074728;28;20430;-68
2021/12/10 12:10:51;;;;;;;0.40;0.40;;;4.00;99.90;;;;;;5074454;28;20415;-68
2021/12/10 12:13:42;;;;;;;0.40;0.40;;;4.00;99.90;;;;;;5074730;28;20538;-67
2021/12/10 12:16:29;;;;;;;1.23;1.23;;;3.90;99.90;;;;;;5074806;28;20430;-68
2021/12/10 12:19:16;;;;;;;0.40;0.40;;;3.90;99.90;;;;;;5074788;28;20463;-67
2021/12/10 12:25:29;;;;;;;0.40;0.40;;;3.80;99.90;;;;;;5075277;28;20419;-67
2021/12/10 12:28:18;;;;;;;1.13;0.70;;;3.70;99.90;;;;;;5076968;28;20430;-67
2021/12/10 12:31:11;;;;;;;0.40;0.40;;;3.70;99.90;;;;;;5076528;28;20438;-67
2021/12/10 12:34:05;;;;;;;2.50;2.30;;;3.70;99.90;;;;;;5077364;28;20465;-68
2021/12/10 12:37:00;;;;;;;0.40;0.40;;;3.80;99.90;;;;;;5078673;28;20415;-67
2021/12/10 12:39:49;;;;;;;0.40;0.40;;;3.70;99.90;;;;;;5078068;28;20471;-68
2021/12/10 12:42:40;;;;;;;0.50;0.50;;;3.70;99.90;;;;;;5079014;28;20939;-68
2021/12/10 12:45:27;;;;;;;0.40;0.40;;;3.70;99.90;;;;;;5078943;28;20423;-67
2021/12/10 12:48:15;;;;;;;1.07;1.07;;;3.70;99.90;;;;;;5076526;28;20508;-68
2021/12/10 12:51:11;;;;;;;2.20;2.10;;;3.60;99.90;;;;;;5077961;28;20958;-68
2021/12/10 12:53:58;;;;;;;3.40;1.73;;;3.50;99.90;;;;;;5077288;28;20452;-68
2021/12/10 12:56:51;;;;;;;0.40;0.40;;;3.60;99.90;;;;;;5076145;28;20453;-68
2021/12/10 12:59:38;;;;;;;1.57;1.47;;;3.60;99.90;;;;;;5075842;28;20458;-67
2021/12/10 13:02:26;;;;;;;0.40;0.40;;;3.70;99.90;;;;;;5075525;28;20512;-67
2021/12/10 13:05:14;;;;;;;0.40;0.40;;;3.80;99.90;;;;;;5076642;28;20889;-67
2021/12/10 13:08:09;;;;;;;0.40;0.40;;;3.90;99.90;;;;;;5076324;28;20451;-68
2021/12/10 13:11:16;;;;;;;0.40;0.40;;;3.90;99.90;;;;;;5075761;28;20942;-67
2021/12/10 13:14:13;;;;;;;0.40;0.40;;;3.80;99.90;;;;;;5055818;28;20440;-67
2021/12/10 13:17:11;;;;;;;0.60;0.60;;;3.80;99.90;;;;;;5055338;28;20506;-67
2021/12/10 13:19:59;;;;;;;0.40;0.40;;;3.60;99.90;;;;;;5052293;28;20457;-67
2021/12/10 13:22:48;;;;;;;0.40;0.40;;;3.60;99.90;;;;;;5052648;28;20474;-67
2021/12/10 13:25:36;;;;;;;2.60;1.80;;;3.60;99.90;;;;;;5052674;28;20420;-67
2021/12/10 13:28:24;;;;;;;0.40;0.40;;;3.60;99.90;;;;;;5052509;28;20959;-67
2021/12/10 13:31:15;;;;;;;0.40;0.40;;;3.70;99.90;;;;;;5052234;28;20428;-67
2021/12/10 13:34:02;;;;;;;0.40;0.40;;;3.80;99.90;;;;;;5053797;28;20827;-67
2021/12/10 13:36:49;;;;;;;1.07;1.07;;;3.90;99.90;;;;;;5053683;28;20424;-67
2021/12/10 13:39:38;;;;;;;0.40;0.40;;;3.80;99.90;;;;;;5052591;28;20776;-67
2021/12/10 13:42:26;;;;;;;0.40;0.40;;;4.00;99.90;;;;;;5052810;28;20774;-67
2021/12/10 13:45:17;;;;;;;1.37;1.27;;;4.00;99.90;;;;;;5052571;28;20799;-67
2021/12/10 13:48:11;;;;;;;0.50;0.50;;;4.00;99.90;;;;;;5053125;28;20440;-67
2021/12/10 13:51:04;;;;;;;0.40;0.40;;;3.90;99.90;;;;;;5052601;28;20471;-66
2021/12/10 13:54:03;;;;;;;0.50;0.50;;;3.90;99.90;;;;;;5052325;28;20459;-66
2021/12/10 13:56:55;;;;;;;0.40;0.40;;;3.90;99.90;;;;;;5051972;28;20428;-66
2021/12/10 13:59:42;;;;;;;0.40;0.40;;;3.80;99.90;;;;;;5051959;28;20478;-68
2021/12/10 14:02:37;;;;;;;0.40;0.40;;;3.80;99.90;;;;;;5052519;28;20432;-67
2021/12/10 14:05:27;;;;;;;0.40;0.40;;;3.80;99.90;;;;;;5052192;28;20427;-66
2021/12/10 14:08:18;;;;;;;0.40;0.40;;;3.60;99.90;;;;;;5052088;28;20420;-67
2021/12/10 14:11:13;;;;;;;0.40;0.40;;;3.60;99.90;;;;;;5052021;28;20416;-67
2021/12/10 14:14:05;;;;;;;0.40;0.40;;;3.60;99.90;;;;;;5052706;28;20456;-68
2021/12/10 14:16:56;;;;;;;0.50;0.50;;;3.60;99.90;;;;;;5052420;28;20432;-67
2021/12/10 14:19:47;;;;;;;0.40;0.40;;;3.60;99.90;;;;;;5051941;28;20464;-67
2021/12/10 14:22:45;;;;;;;0.40;0.40;;;3.60;99.90;;;;;;5052617;28;20420;-67
2021/12/10 14:25:36;;;;;;;0.40;0.40;;;3.50;99.90;;;;;;5052694;28;20420;-67
2021/12/10 14:28:34;;;;;;;0.40;0.40;;;3.40;99.90;;;;;;5052308;28;20987;-67
2021/12/10 14:31:28;;;;;;;0.97;0.97;;;3.40;99.90;;;;;;5053181;28;20416;-67
2021/12/10 14:34:19;;;;;;;2.40;1.83;;;3.40;99.90;;;;;;5051759;28;20982;-67
2021/12/10 14:37:08;;;;;;;0.40;0.40;;;3.30;99.90;;;;;;5051769;28;20956;-67
2021/12/10 14:40:04;;;;;;;0.50;0.50;;;3.20;99.90;;;;;;5051460;28;20503;-67
2021/12/10 14:43:13;;;;;;;0.40;0.40;;;3.10;99.90;;;;;;5052159;28;20511;-67
2021/12/10 14:46:12;;;;;;;0.40;0.40;;;3.00;99.90;;;;;;5052255;28;20428;-67
2021/12/10 14:49:10;;;;;;;0.40;0.40;;;3.00;99.90;;;;;;5052116;28;20420;-67
2021/12/10 14:52:18;;;;;;;0.50;0.50;;;3.00;99.90;;;;;;5052127;28;20424;-67
2021/12/10 14:55:10;;;;;;;0.40;0.40;;;3.00;99.90;;;;;;5051323;28;20965;-67
2021/12/10 14:57:59;;;;;;;0.40;0.40;;;3.10;99.90;;;;;;5052265;28;20420;-67
2021/12/10 15:00:48;;;;;;;0.40;0.40;;;3.10;99.90;;;;;;5053061;28;20456;-67
2021/12/10 15:03:40;;;;;;;0.40;0.40;;;3.10;99.90;;;;;;5053005;28;20462;-67
2021/12/10 15:06:29;;;;;;;0.40;0.40;;;3.10;99.90;;;;;;5055591;28;20423;-67
2021/12/10 15:09:16;;;;;;;0.40;0.40;;;3.20;99.90;;;;;;5051652;28;20423;-67